createdAt,value
2022-09-03T08:20:26.401Z,2.67
2022-09-03T08:29:35.389Z,3.50
2022-09-03T08:33:51.770Z,2.80
2022-09-03T08:36:17.621Z,2.80
2022-09-03T08:38:32.976Z,2.47
2022-09-03T08:41:05.409Z,2.70
2022-09-03T08:43:18.973Z,2.73
2022-09-03T08:45:21.826Z,2.67
2022-09-03T08:47:44.579Z,2.60
2022-09-03T08:50:12.254Z,2.50
2022-09-03T08:52:32.364Z,2.70
2022-09-03T08:54:49.700Z,2.40
2022-09-03T08:56:52.654Z,3.10
2022-09-03T08:58:56.372Z,2.90
2022-09-03T09:01:31.895Z,3.05
2022-09-03T09:03:39.494Z,2.33
2022-09-03T09:06:07.158Z,2.38
2022-09-03T09:08:22.124Z,2.58
2022-09-03T09:10:48.921Z,2.67
2022-09-03T09:13:18.217Z,2.40
2022-09-03T09:16:02.559Z,3.03
2022-09-03T09:18:34.772Z,2.38
2022-09-03T09:20:52.578Z,2.63
2022-09-03T09:23:10.643Z,2.83
2022-09-03T09:25:22.151Z,2.88
2022-09-03T09:27:24.962Z,2.95
2022-09-03T09:29:32.609Z,3.10
2022-09-03T09:31:35.597Z,3.17
2022-09-03T09:33:37.429Z,2.80
2022-09-03T09:35:45.010Z,2.72
2022-09-03T09:37:50.278Z,3.03
2022-09-03T09:39:58.870Z,3.08
2022-09-03T09:42:11.059Z,2.47
2022-09-03T09:44:22.132Z,2.90
2022-09-03T09:46:32.065Z,3.37
2022-09-03T09:48:41.040Z,2.80
2022-09-03T09:50:42.924Z,2.80
2022-09-03T09:52:45.872Z,3.08
2022-09-03T09:54:55.243Z,2.80
2022-09-03T09:57:06.274Z,3.07
2022-09-03T09:59:09.901Z,2.97
2022-09-03T10:01:18.636Z,2.83
2022-09-03T10:03:21.533Z,3.42
2022-09-03T10:05:32.331Z,3.00
2022-09-03T10:07:34.444Z,3.10
2022-09-03T10:09:36.229Z,3.22
2022-09-03T10:11:40.990Z,2.60
2022-09-03T10:13:48.004Z,2.63
2022-09-03T10:15:57.714Z,3.03
2022-09-03T10:18:18.377Z,3.28
2022-09-03T10:20:45.000Z,2.83
2022-09-03T10:22:57.461Z,2.30
2022-09-03T10:25:03.379Z,2.90
2022-09-03T10:27:12.295Z,2.50
2022-09-03T10:29:20.026Z,2.85
2022-09-03T10:31:33.909Z,2.40
2022-09-03T10:33:44.287Z,2.80
2022-09-03T10:35:53.172Z,2.85
2022-09-03T10:38:10.147Z,2.80
2022-09-03T10:40:31.000Z,3.20
2022-09-03T10:43:32.570Z,2.65
2022-09-03T10:45:41.483Z,3.10
2022-09-03T10:48:01.652Z,2.60
2022-09-03T10:50:15.114Z,3.10
2022-09-03T10:52:19.908Z,2.83
2022-09-03T10:54:36.698Z,3.65
2022-09-03T10:57:07.689Z,2.80
2022-09-03T10:59:16.128Z,3.03
2022-09-03T11:01:40.278Z,3.03
2022-09-03T11:04:15.182Z,2.60
2022-09-03T11:06:30.264Z,2.90
2022-09-03T11:08:54.858Z,2.90
2022-09-03T11:11:16.765Z,2.80
2022-09-03T11:13:26.703Z,2.83
2022-09-03T11:15:34.929Z,2.78
2022-09-03T11:17:50.387Z,2.67
2022-09-03T11:19:59.254Z,3.15
2022-09-03T11:22:03.605Z,3.80
2022-09-03T11:24:10.242Z,2.80
2022-09-03T11:26:16.837Z,3.00
2022-09-03T11:28:42.358Z,3.00
2022-09-03T11:30:50.117Z,3.20
2022-09-03T11:33:00.608Z,2.97
2022-09-03T11:35:13.065Z,3.30
2022-09-03T11:37:27.500Z,3.05
2022-09-03T11:39:32.343Z,3.92
2022-09-03T11:41:38.514Z,3.47
2022-09-03T11:43:41.121Z,3.25
2022-09-03T11:45:43.173Z,3.45
2022-09-03T11:47:46.952Z,3.03
2022-09-03T11:49:53.825Z,2.70
2022-09-03T11:52:01.630Z,3.10
2022-09-03T11:54:23.748Z,3.33
2022-09-03T11:56:26.165Z,3.70
2022-09-03T11:58:36.083Z,3.72
2022-09-03T12:00:44.486Z,3.10
2022-09-03T12:02:58.929Z,4.30
2022-09-03T12:05:26.352Z,3.20
2022-09-03T12:08:09.727Z,3.27
2022-09-03T12:10:35.343Z,3.37
2022-09-03T12:12:48.299Z,3.30
2022-09-03T12:15:06.459Z,3.50
2022-09-03T12:17:26.014Z,3.30
2022-09-03T12:19:39.791Z,3.90
2022-09-03T12:21:41.631Z,3.70
2022-09-03T12:23:51.163Z,3.27
2022-09-03T12:26:05.416Z,3.27
2022-09-03T12:28:13.198Z,4.20
2022-09-03T12:30:21.547Z,4.00
2022-09-03T12:32:24.339Z,3.43
2022-09-03T12:34:27.305Z,2.90
2022-09-03T12:36:42.036Z,3.93
2022-09-03T12:39:10.002Z,3.50
2022-09-03T12:41:23.433Z,3.70
2022-09-03T12:43:37.638Z,3.97
2022-09-03T12:48:16.178Z,3.93
2022-09-03T12:50:24.355Z,3.90
2022-09-03T12:55:59.452Z,3.37
2022-09-03T12:58:19.829Z,3.63
2022-09-03T13:00:23.542Z,2.57
2022-09-03T13:02:36.206Z,2.77
2022-09-03T13:04:40.246Z,2.50
2022-09-03T13:07:21.162Z,2.63
2022-09-03T13:09:29.954Z,2.40
2022-09-03T13:11:37.257Z,2.27
2022-09-03T13:13:40.731Z,2.70
2022-09-03T13:15:44.194Z,2.10
2022-09-03T13:17:53.804Z,2.53
2022-09-03T13:20:11.430Z,2.17
2022-09-03T13:22:31.383Z,1.90
2022-09-03T13:24:40.528Z,2.23
2022-09-03T13:26:44.981Z,2.07
2022-09-03T13:29:05.817Z,2.73
2022-09-03T13:31:21.645Z,2.00
2022-09-03T13:33:37.775Z,2.17
2022-09-03T13:36:14.608Z,2.70
2022-09-03T13:38:41.590Z,2.47
2022-09-03T13:40:52.258Z,2.70
2022-09-03T13:42:58.682Z,2.43
2022-09-03T13:45:14.263Z,2.40
2022-09-03T13:48:01.414Z,2.50
2022-09-03T13:50:39.374Z,2.40
2022-09-03T13:53:03.975Z,2.27
2022-09-03T13:55:17.216Z,2.10
2022-09-03T13:57:34.778Z,1.97
2022-09-03T13:59:45.000Z,2.17
2022-09-03T14:01:59.830Z,1.90
2022-09-03T14:04:04.071Z,2.10
2022-09-03T14:06:25.417Z,2.10
2022-09-03T14:08:33.174Z,2.27
2022-09-03T14:10:57.953Z,2.17
2022-09-03T14:13:26.916Z,1.93
2022-09-03T14:15:45.929Z,1.63
2022-09-03T14:17:59.326Z,1.80
2022-09-03T14:20:23.561Z,1.37
2022-09-03T14:22:52.873Z,1.40
2022-09-03T14:24:56.851Z,1.40
2022-09-03T14:27:02.330Z,1.80
2022-09-03T14:29:12.952Z,1.80
2022-09-03T14:31:35.691Z,1.77
2022-09-03T14:33:56.032Z,1.57
2022-09-03T14:36:16.322Z,1.60
2022-09-03T14:38:43.891Z,1.90
2022-09-03T14:40:49.588Z,2.00
2022-09-03T14:43:15.630Z,1.80
2022-09-03T14:45:32.512Z,1.47
2022-09-03T14:48:12.443Z,1.60
2022-09-03T14:50:26.181Z,2.13
2022-09-03T14:52:53.119Z,1.50
2022-09-03T14:55:14.495Z,1.90
2022-09-03T14:57:58.237Z,1.70
2022-09-03T15:00:05.446Z,1.50
2022-09-03T15:02:32.580Z,1.70
2022-09-03T15:04:52.296Z,2.03
2022-09-03T15:07:21.482Z,1.80
2022-09-03T15:09:31.942Z,1.40
2022-09-03T15:11:44.055Z,1.50
2022-09-03T15:13:52.462Z,1.43
2022-09-03T15:16:04.015Z,1.50
2022-09-03T15:18:21.662Z,1.40
2022-09-03T15:20:48.335Z,1.80
2022-09-03T15:23:13.179Z,1.37
2022-09-03T15:25:21.535Z,1.60
2022-09-03T15:27:41.710Z,2.00
2022-09-03T15:29:58.375Z,2.20
2022-09-03T15:32:05.984Z,1.70
2022-09-03T15:34:30.630Z,1.70
2022-09-03T15:36:49.110Z,1.63
2022-09-03T15:38:55.428Z,1.43
2022-09-03T15:41:02.296Z,1.20
2022-09-03T15:43:28.060Z,1.47
2022-09-03T15:45:49.590Z,1.43
2022-09-03T15:48:01.623Z,1.50
2022-09-03T15:50:16.194Z,1.30
2022-09-03T15:52:31.947Z,1.33
2022-09-03T15:55:37.239Z,1.50
2022-09-03T15:58:19.218Z,1.70
2022-09-03T16:00:23.177Z,1.50
2022-09-03T16:02:58.956Z,1.50
2022-09-03T16:05:11.216Z,1.60
2022-09-03T16:07:27.897Z,1.57
2022-09-03T16:09:45.488Z,1.33
2022-09-03T16:12:22.286Z,1.60
2022-09-03T16:14:38.161Z,1.67
2022-09-03T16:17:04.106Z,1.70
2022-09-03T16:19:17.349Z,1.80
2022-09-03T16:21:29.134Z,1.40
2022-09-03T16:23:48.413Z,1.57
2022-09-03T16:26:05.384Z,1.90
2022-09-03T16:28:15.172Z,1.50
2022-09-03T16:30:46.310Z,1.67
2022-09-03T16:33:16.161Z,1.73
2022-09-03T16:35:28.199Z,1.53
2022-09-03T16:37:45.248Z,1.60
2022-09-03T16:40:23.245Z,1.50
2022-09-03T16:42:44.217Z,1.50
2022-09-03T16:45:05.607Z,1.80
2022-09-03T16:47:37.606Z,1.90
2022-09-03T16:49:48.253Z,2.03
2022-09-03T16:52:09.657Z,1.90
2022-09-03T16:54:30.208Z,2.53
2022-09-03T16:57:14.519Z,2.00
2022-09-03T16:59:35.108Z,1.97
2022-09-03T17:01:38.332Z,3.27
2022-09-03T17:03:56.073Z,3.90
2022-09-03T17:06:07.006Z,3.37
2022-09-03T17:08:44.218Z,3.00
2022-09-03T17:11:20.948Z,2.67
2022-09-03T17:14:00.714Z,2.90
2022-09-03T17:16:08.561Z,3.23
2022-09-03T17:18:30.842Z,2.30
2022-09-03T17:20:49.518Z,2.53
2022-09-03T17:23:06.765Z,3.00
2022-09-03T17:25:49.829Z,2.20
2022-09-03T17:28:25.303Z,1.93
2022-09-03T17:30:53.630Z,1.60
2022-09-03T17:32:57.626Z,1.83
2022-09-03T17:34:59.410Z,1.40
2022-09-03T17:37:22.151Z,1.70
2022-09-03T17:39:44.969Z,1.83
2022-09-03T17:41:57.893Z,1.93
2022-09-03T17:44:08.793Z,2.03
2022-09-03T17:46:34.520Z,1.90
2022-09-03T17:48:52.574Z,2.10
2022-09-03T17:51:00.785Z,1.97
2022-09-03T17:53:21.038Z,1.90
2022-09-03T17:55:50.478Z,2.37
2022-09-03T17:58:08.770Z,2.20
2022-09-03T18:00:22.652Z,2.20
2022-09-03T18:02:48.122Z,1.70
2022-09-03T18:04:56.597Z,2.33
2022-09-03T18:07:39.365Z,1.80
2022-09-03T18:10:06.642Z,2.10
2022-09-03T18:12:30.487Z,1.53
2022-09-03T18:14:51.956Z,2.03
2022-09-03T18:17:20.326Z,1.80
2022-09-03T18:20:09.187Z,1.60
2022-09-03T18:22:29.831Z,1.80
2022-09-03T18:25:18.997Z,2.00
2022-09-03T18:27:52.355Z,1.80
2022-09-03T18:30:21.520Z,1.70
2022-09-03T18:32:42.067Z,2.00
2022-09-03T18:35:04.939Z,1.80
2022-09-03T18:37:26.410Z,1.90
2022-09-03T18:39:47.816Z,1.80
2022-09-03T18:42:26.862Z,2.03
2022-09-03T18:45:42.001Z,2.10
2022-09-03T18:48:31.086Z,2.23
2022-09-03T18:50:56.870Z,2.53
2022-09-03T18:53:36.606Z,2.50
2022-09-03T18:56:19.612Z,2.60
2022-09-03T18:59:08.626Z,2.77
2022-09-03T19:01:50.996Z,3.40
2022-09-03T19:04:19.478Z,3.10
2022-09-03T19:06:59.411Z,3.07
2022-09-03T19:09:34.646Z,2.83
2022-09-03T19:12:19.361Z,3.40
2022-09-03T19:14:58.019Z,3.33
2022-09-03T19:17:34.215Z,3.47
2022-09-03T19:20:21.982Z,3.10
2022-09-03T19:23:08.945Z,3.20
2022-09-03T19:25:31.795Z,3.00
2022-09-03T19:28:30.219Z,3.00
2022-09-03T19:31:28.274Z,3.23
2022-09-03T19:34:07.413Z,3.07
2022-09-03T19:36:27.580Z,2.97
2022-09-03T19:38:58.125Z,3.23
2022-09-03T19:41:46.594Z,3.43
2022-09-03T19:44:26.170Z,3.03
2022-09-03T19:47:12.756Z,2.83
2022-09-03T19:49:49.688Z,2.93
2022-09-03T19:52:25.399Z,2.80
2022-09-03T19:54:48.302Z,2.70
2022-09-03T19:57:11.230Z,2.93
2022-09-03T19:59:38.413Z,2.73
2022-09-03T20:02:00.105Z,3.50
2022-09-03T20:04:31.410Z,2.67
2022-09-03T20:06:54.903Z,3.00
2022-09-03T20:09:22.943Z,2.60
2022-09-03T20:11:28.794Z,3.33
2022-09-03T20:13:50.939Z,2.93
2022-09-03T20:16:04.650Z,3.37
2022-09-03T20:18:31.198Z,3.33
2022-09-03T20:20:51.931Z,2.77
2022-09-03T20:23:13.374Z,3.10
2022-09-03T20:25:26.896Z,3.30
2022-09-03T20:28:03.919Z,2.60
2022-09-03T20:30:09.442Z,2.90
2022-09-03T20:32:42.543Z,3.30
2022-09-03T20:35:24.131Z,2.67
2022-09-03T20:37:41.647Z,3.43
2022-09-03T20:40:09.362Z,3.57
2022-09-03T20:42:40.181Z,2.60
2022-09-03T20:44:53.277Z,3.30
2022-09-03T20:47:23.138Z,3.27
2022-09-03T20:49:56.532Z,3.80
2022-09-03T20:52:06.106Z,2.97
2022-09-03T20:54:17.117Z,2.70
2022-09-03T20:56:27.731Z,2.63
2022-09-03T20:58:51.813Z,3.47
2022-09-03T21:01:04.327Z,2.70
2022-09-03T21:03:29.157Z,2.40
2022-09-03T21:05:46.471Z,2.40
2022-09-03T21:08:11.277Z,2.83
2022-09-03T21:10:44.974Z,2.33
2022-09-03T21:12:52.897Z,2.33
2022-09-03T21:15:17.323Z,2.70
2022-09-03T21:17:38.949Z,2.70
2022-09-03T21:19:40.611Z,2.90
2022-09-03T21:21:45.700Z,2.50
2022-09-03T21:24:03.624Z,2.50
2022-09-03T21:26:31.247Z,2.63
2022-09-03T21:28:40.326Z,2.53
2022-09-03T21:30:48.316Z,2.70
2022-09-03T21:33:01.318Z,2.50
2022-09-03T21:35:18.990Z,2.73
2022-09-03T21:37:24.556Z,2.40
2022-09-03T21:39:45.532Z,3.07
2022-09-03T21:42:00.787Z,2.80
2022-09-03T21:44:31.611Z,3.07
2022-09-03T21:46:41.574Z,2.70
2022-09-03T21:48:43.521Z,2.90
2022-09-03T21:50:55.892Z,3.00
2022-09-03T21:53:19.944Z,2.40
2022-09-03T21:55:34.051Z,3.07
2022-09-03T21:57:50.745Z,2.90
2022-09-03T22:00:17.754Z,2.90
2022-09-03T22:02:23.911Z,2.40
2022-09-03T22:04:26.984Z,2.90
2022-09-03T22:06:56.871Z,2.67
2022-09-03T22:09:13.510Z,2.57
2022-09-03T22:11:33.501Z,4.27
2022-09-03T22:14:02.752Z,2.30
2022-09-03T22:16:23.750Z,2.70
2022-09-03T22:18:31.857Z,2.77
2022-09-03T22:20:35.309Z,2.43
2022-09-03T22:22:58.828Z,2.87
2022-09-03T22:25:14.159Z,2.53
2022-09-03T22:27:35.587Z,2.37
2022-09-03T22:29:51.019Z,2.63
2022-09-03T22:32:01.906Z,2.33
2022-09-03T22:34:24.842Z,2.30
2022-09-03T22:36:53.114Z,2.90
2022-09-03T22:39:37.643Z,2.63
2022-09-03T22:42:11.483Z,3.10
2022-09-03T22:44:47.050Z,3.07
2022-09-03T22:47:03.737Z,2.77
2022-09-03T22:49:19.111Z,2.60
2022-09-03T22:51:22.032Z,2.87
2022-09-03T22:53:45.155Z,3.10
2022-09-03T22:56:00.457Z,2.83
2022-09-03T22:58:08.164Z,3.10
2022-09-03T23:00:11.180Z,2.70
2022-09-03T23:02:22.012Z,2.90
2022-09-03T23:04:48.572Z,3.33
2022-09-03T23:07:22.220Z,2.60
2022-09-03T23:09:29.902Z,2.53
2022-09-03T23:11:46.954Z,3.83
2022-09-03T23:13:54.627Z,2.63
2022-09-03T23:16:13.597Z,2.80
2022-09-03T23:18:26.617Z,3.00
2022-09-03T23:20:30.374Z,2.77
2022-09-03T23:22:40.508Z,2.87
2022-09-03T23:24:54.118Z,3.30
2022-09-03T23:26:58.744Z,2.73
2022-09-03T23:29:15.534Z,3.30
2022-09-03T23:31:19.184Z,3.03
2022-09-03T23:33:20.901Z,3.20
2022-09-03T23:35:30.039Z,3.10
2022-09-03T23:37:37.818Z,3.10
2022-09-03T23:40:15.453Z,2.70
2022-09-03T23:42:37.713Z,2.80
2022-09-03T23:45:17.014Z,2.83
2022-09-03T23:47:24.363Z,2.60
2022-09-03T23:49:55.247Z,2.43
2022-09-03T23:52:11.221Z,2.40
2022-09-03T23:54:35.886Z,2.23
2022-09-03T23:57:05.521Z,2.20
2022-09-03T23:59:33.128Z,2.37
